createdAt,value
2018-03-16T19:33:35.146Z,982.74
2018-03-16T19:34:35.111Z,982.74
2018-03-16T19:36:27.987Z,982.79
2018-03-16T19:37:27.984Z,982.89
2018-03-16T19:39:20.884Z,982.87
2018-03-16T19:40:20.861Z,982.88
2018-03-16T19:42:13.745Z,982.94
2018-03-16T19:43:13.745Z,983.00
2018-03-16T19:45:06.655Z,983.02
2018-03-16T19:46:06.631Z,983.05
2018-03-16T19:47:59.521Z,983.10
2018-03-16T19:48:59.523Z,983.08
2018-03-16T19:50:52.430Z,983.11
2018-03-16T19:51:52.414Z,983.08
2018-03-16T19:53:45.321Z,983.08
2018-03-16T19:54:45.317Z,983.09
2018-03-16T19:55:45.310Z,983.11
2018-03-16T19:56:45.314Z,983.10
2018-03-16T19:57:45.324Z,983.09
2018-03-16T19:58:45.325Z,983.09
2018-03-16T19:59:45.326Z,983.09
2018-03-16T20:00:45.335Z,983.06
2018-03-16T20:01:45.340Z,983.05
2018-03-16T20:02:45.348Z,983.08
2018-03-16T20:03:45.356Z,983.07
2018-03-16T20:04:45.362Z,983.10
2018-03-16T20:05:45.363Z,983.10
2018-03-16T20:06:45.370Z,983.11
2018-03-16T20:07:45.375Z,983.16
2018-03-16T20:08:45.383Z,983.17
2018-03-16T20:09:45.388Z,983.19
2018-03-16T20:10:45.393Z,983.28
2018-03-16T20:11:45.400Z,983.21
2018-03-16T20:12:45.407Z,983.24
2018-03-16T20:13:45.411Z,983.20
2018-03-16T20:14:45.420Z,983.22
2018-03-16T20:15:45.425Z,983.21
2018-03-16T20:16:45.431Z,983.27
2018-03-16T20:17:45.443Z,983.23
2018-03-16T20:18:45.444Z,983.18
2018-03-16T20:19:45.457Z,983.19
2018-03-16T20:20:45.457Z,983.21
2018-03-16T20:21:45.464Z,983.22
2018-03-16T20:22:45.479Z,983.26
2018-03-16T20:23:45.478Z,983.30
2018-03-16T20:24:45.488Z,983.28
2018-03-16T20:25:45.491Z,983.32
2018-03-16T20:26:45.498Z,983.33
2018-03-16T20:27:45.504Z,983.36
2018-03-16T20:28:45.511Z,983.38
2018-03-16T20:29:45.518Z,983.36
2018-03-16T20:30:45.524Z,983.37
2018-03-16T20:31:45.532Z,983.37
2018-03-16T20:32:45.533Z,983.41
2018-03-16T20:33:45.545Z,983.40
2018-03-16T20:34:45.553Z,983.40
2018-03-16T20:35:45.560Z,983.39
2018-03-16T20:36:45.569Z,983.42
2018-03-16T20:37:45.573Z,983.42
2018-03-16T20:38:45.579Z,983.42
2018-03-16T20:39:45.588Z,983.45
2018-03-16T20:40:45.594Z,983.47
2018-03-16T20:41:45.601Z,983.42
2018-03-16T20:42:45.614Z,983.47
2018-03-16T20:43:45.617Z,983.48
2018-03-16T20:44:45.623Z,983.49
2018-03-16T20:45:45.628Z,983.46
2018-03-16T20:46:45.636Z,983.49
2018-03-16T20:47:45.644Z,983.50
2018-03-16T20:48:45.651Z,983.53
2018-03-16T20:49:45.658Z,983.56
2018-03-16T20:50:45.665Z,983.59
2018-03-16T20:51:45.673Z,983.62
2018-03-16T20:52:45.687Z,983.61
2018-03-16T20:53:45.685Z,983.60
2018-03-16T20:54:45.693Z,983.60
2018-03-16T20:55:45.701Z,983.63
2018-03-16T20:56:45.708Z,983.58
2018-03-16T20:57:45.716Z,983.61
2018-03-16T20:58:45.722Z,983.57
2018-03-16T20:59:45.733Z,983.61
2018-03-16T21:00:45.745Z,983.60
2018-03-16T21:01:45.743Z,983.58
2018-03-16T21:02:45.750Z,983.58
2018-03-16T21:03:45.759Z,983.59
2018-03-16T21:04:45.766Z,983.60
2018-03-16T21:05:45.772Z,983.57
2018-03-16T21:06:45.780Z,983.57
2018-03-16T21:07:45.786Z,983.56
2018-03-16T21:08:45.795Z,983.57
2018-03-16T21:09:45.802Z,983.55
2018-03-16T21:10:45.811Z,983.63
2018-03-16T21:11:45.816Z,983.62
2018-03-16T21:12:45.824Z,983.60
2018-03-16T21:13:45.830Z,983.60
2018-03-16T21:14:45.838Z,983.65
2018-03-16T21:15:45.845Z,983.60
2018-03-16T21:16:45.852Z,983.64
2018-03-16T21:17:45.859Z,983.64
2018-03-16T21:18:45.867Z,983.65
2018-03-16T21:19:45.873Z,983.65
2018-03-16T21:20:45.881Z,983.62
2018-03-16T21:21:45.888Z,983.63
2018-03-16T21:22:45.896Z,983.63
2018-03-16T21:23:45.903Z,983.65
2018-03-16T21:24:45.909Z,983.67
2018-03-16T21:25:45.917Z,983.61
2018-03-16T21:26:45.931Z,983.64
2018-03-16T21:27:45.931Z,983.64
2018-03-16T21:28:45.947Z,983.66
2018-03-16T21:29:45.947Z,983.65
2018-03-16T21:30:45.957Z,983.67
2018-03-16T21:31:45.960Z,983.63
2018-03-16T21:32:45.969Z,983.64
2018-03-16T21:33:45.978Z,983.65
2018-03-16T21:34:45.982Z,983.68
2018-03-16T21:35:45.990Z,983.65
2018-03-16T21:36:45.997Z,983.66
2018-03-16T21:37:46.005Z,983.67
2018-03-16T21:38:46.011Z,983.68
2018-03-16T21:39:46.019Z,983.65
2018-03-16T21:40:46.025Z,983.67
2018-03-16T21:41:46.033Z,983.66
2018-03-16T21:42:46.041Z,983.68
2018-03-16T21:43:46.049Z,983.69
2018-03-16T21:44:46.056Z,983.65
2018-03-16T21:45:46.065Z,983.69
2018-03-16T21:46:46.069Z,983.66
2018-03-16T21:47:46.077Z,983.57
2018-03-16T21:48:46.085Z,983.63
2018-03-16T21:49:46.091Z,983.57
2018-03-16T21:50:46.098Z,983.65
2018-03-16T21:51:46.107Z,983.65
2018-03-16T21:52:46.114Z,983.66
2018-03-16T21:53:46.120Z,983.59
2018-03-16T21:54:46.127Z,983.58
2018-03-16T21:55:46.135Z,983.61
2018-03-16T21:56:46.144Z,983.61
2018-03-16T21:57:46.150Z,983.55
2018-03-16T21:58:46.156Z,983.58
2018-03-16T21:59:46.165Z,983.55
2018-03-16T22:00:46.172Z,983.55
2018-03-16T22:01:46.178Z,983.54
2018-03-16T22:02:46.186Z,983.55
2018-03-16T22:03:46.193Z,983.54
2018-03-16T22:04:46.201Z,983.57
2018-03-16T22:05:46.206Z,983.55
2018-03-16T22:06:46.215Z,983.55
2018-03-16T22:07:46.222Z,983.53
2018-03-16T22:08:46.230Z,983.55
2018-03-16T22:09:46.237Z,983.63
2018-03-16T22:10:46.243Z,983.61
2018-03-16T22:11:46.251Z,983.58
2018-03-16T22:12:46.264Z,983.56
2018-03-16T22:13:46.268Z,983.55
2018-03-16T22:14:46.272Z,983.58
2018-03-16T22:15:46.281Z,983.55
2018-03-16T22:16:46.288Z,983.58
2018-03-16T22:17:46.293Z,983.53
2018-03-16T22:18:46.308Z,983.56
2018-03-16T22:19:46.310Z,983.53
2018-03-16T22:20:46.318Z,983.51
2018-03-16T22:21:46.322Z,983.55
2018-03-16T22:22:46.333Z,983.55
2018-03-16T22:23:46.337Z,983.54
2018-03-16T22:24:46.345Z,983.53
2018-03-16T22:25:46.351Z,983.48
2018-03-16T22:26:46.360Z,983.48
2018-03-16T22:27:46.366Z,983.57
2018-03-16T22:28:46.374Z,983.51
2018-03-16T22:29:46.380Z,983.49
2018-03-16T22:30:46.388Z,983.50
2018-03-16T22:31:46.396Z,983.40
2018-03-16T22:32:46.403Z,983.45
2018-03-16T22:33:46.410Z,983.43
2018-03-16T22:34:46.418Z,983.49
2018-03-16T22:35:46.424Z,983.43
2018-03-16T22:36:46.432Z,983.45
2018-03-16T22:37:46.439Z,983.49
2018-03-16T22:38:46.447Z,983.42
2018-03-16T22:39:46.453Z,983.43
2018-03-16T22:40:46.461Z,983.39
2018-03-16T22:41:46.467Z,983.44
2018-03-16T22:42:46.476Z,983.44
2018-03-16T22:43:46.482Z,983.43
2018-03-16T22:44:46.490Z,983.46
2018-03-16T22:45:46.497Z,983.46
2018-03-16T22:46:46.503Z,983.48
2018-03-16T22:47:46.511Z,983.50
2018-03-16T22:48:46.518Z,983.54
2018-03-16T22:49:46.525Z,983.52
2018-03-16T22:50:46.533Z,983.55
2018-03-16T22:51:46.539Z,983.53
2018-03-16T22:52:46.548Z,983.56
2018-03-16T22:53:46.554Z,983.54
2018-03-16T22:54:46.562Z,983.55
2018-03-16T22:55:46.569Z,983.53
2018-03-16T22:56:46.618Z,983.53
2018-03-16T22:57:46.583Z,983.58
2018-03-16T22:58:46.592Z,983.60
2018-03-16T22:59:46.598Z,983.60
2018-03-16T23:00:46.606Z,983.63
2018-03-16T23:01:46.610Z,983.58
2018-03-16T23:02:46.618Z,983.59
2018-03-16T23:03:46.627Z,983.57
2018-03-16T23:04:46.634Z,983.58
2018-03-16T23:05:46.639Z,983.54
2018-03-16T23:06:46.648Z,983.54
2018-03-16T23:07:46.656Z,983.52
2018-03-16T23:08:46.662Z,983.52
2018-03-16T23:09:46.670Z,983.51
2018-03-16T23:10:46.678Z,983.49
2018-03-16T23:11:46.685Z,983.45
2018-03-16T23:12:46.691Z,983.43
2018-03-16T23:13:46.700Z,983.43
2018-03-16T23:14:46.707Z,983.43
2018-03-16T23:15:46.713Z,983.39
2018-03-16T23:16:46.784Z,983.44
2018-03-16T23:17:46.725Z,983.41
2018-03-16T23:18:46.733Z,983.50
2018-03-16T23:19:46.741Z,983.46
2018-03-16T23:20:46.752Z,983.53
2018-03-16T23:21:46.756Z,983.50
2018-03-16T23:22:46.761Z,983.51
2018-03-16T23:23:46.770Z,983.50
2018-03-16T23:24:46.778Z,983.56
2018-03-16T23:25:46.782Z,983.52
2018-03-16T23:26:46.791Z,983.56
2018-03-16T23:27:46.797Z,983.53
2018-03-16T23:28:46.807Z,983.59
2018-03-16T23:29:46.810Z,983.54
2018-03-16T23:30:46.817Z,983.60
2018-03-16T23:31:46.826Z,983.56
2018-03-16T23:32:46.835Z,983.55
2018-03-16T23:33:46.838Z,983.57
2018-03-16T23:34:46.846Z,983.62
2018-03-16T23:35:46.853Z,983.54
2018-03-16T23:36:46.861Z,983.62
2018-03-16T23:37:46.867Z,983.59
2018-03-16T23:38:46.875Z,983.57
2018-03-16T23:39:46.882Z,983.58
2018-03-16T23:40:46.888Z,983.57
2018-03-16T23:41:46.928Z,983.56
2018-03-16T23:42:46.902Z,983.59
2018-03-16T23:43:46.911Z,983.57
2018-03-16T23:44:46.916Z,983.55
2018-03-16T23:45:46.923Z,983.50
2018-03-16T23:46:46.930Z,983.45
2018-03-16T23:47:46.943Z,983.53
2018-03-16T23:48:46.944Z,983.48
2018-03-16T23:49:46.950Z,983.51
2018-03-16T23:50:46.959Z,983.47
2018-03-16T23:51:46.965Z,983.47
2018-03-16T23:52:46.971Z,983.50
2018-03-16T23:53:46.985Z,983.48
2018-03-16T23:54:46.986Z,983.51
2018-03-16T23:55:46.994Z,983.53
2018-03-16T23:56:47.006Z,983.50
2018-03-16T23:57:47.012Z,983.50
2018-03-16T23:58:47.014Z,983.51
2018-03-16T23:59:47.021Z,983.50
